Terminal Aerodrome Forecast
Issued by NWS Northern Indiana

Home | Current Version | Previous Version | Text Only | Print | Product List | Glossary Off
Versions: 1 2 3 4 5 6 7 8 9 10 11 12 13 14 15

000
FTUS43 KIWX 191100
TAFFWA
TAF
KFWA 191127Z 1912/2012 28005KT P6SM SCT015 OVC025
      TEMPO 1912/1914 6SM BR OVC015
     FM191600 32004KT P6SM OVC025=

USA.gov is the U.S. government's official web portal to all federal, state and local government web resources and services.